sensor_id;sensor_type;location;lat;lon;timestamp;P1;durP1;ratioP1;P2;durP2;ratioP2
19794;SDS011;10057;59.402;17.866;2022-08-19T00:01:48;18.70;;;10.87;;
19794;SDS011;10057;59.402;17.866;2022-08-19T00:04:21;21.47;;;10.93;;
19794;SDS011;10057;59.402;17.866;2022-08-19T00:06:51;20.37;;;11.50;;
19794;SDS011;10057;59.402;17.866;2022-08-19T00:09:18;25.30;;;10.80;;
19794;SDS011;10057;59.402;17.866;2022-08-19T00:11:46;20.20;;;11.43;;
19794;SDS011;10057;59.402;17.866;2022-08-19T00:14:14;22.37;;;11.27;;
19794;SDS011;10057;59.402;17.866;2022-08-19T00:16:43;23.70;;;12.27;;
19794;SDS011;10057;59.402;17.866;2022-08-19T00:19:13;22.47;;;11.63;;
19794;SDS011;10057;59.402;17.866;2022-08-19T00:21:40;24.00;;;11.73;;
19794;SDS011;10057;59.402;17.866;2022-08-19T00:24:07;23.47;;;11.67;;
19794;SDS011;10057;59.402;17.866;2022-08-19T00:26:36;26.10;;;11.93;;
19794;SDS011;10057;59.402;17.866;2022-08-19T00:29:03;25.57;;;11.40;;
19794;SDS011;10057;59.402;17.866;2022-08-19T00:31:31;26.70;;;11.87;;
19794;SDS011;10057;59.402;17.866;2022-08-19T00:33:57;26.67;;;11.87;;
19794;SDS011;10057;59.402;17.866;2022-08-19T00:36:24;21.80;;;11.87;;
19794;SDS011;10057;59.402;17.866;2022-08-19T00:38:51;27.37;;;13.30;;
19794;SDS011;10057;59.402;17.866;2022-08-19T00:41:19;32.63;;;13.20;;
19794;SDS011;10057;59.402;17.866;2022-08-19T00:43:57;30.33;;;13.77;;
19794;SDS011;10057;59.402;17.866;2022-08-19T00:46:26;27.37;;;13.10;;
19794;SDS011;10057;59.402;17.866;2022-08-19T00:48:53;24.73;;;12.10;;
19794;SDS011;10057;59.402;17.866;2022-08-19T00:51:22;26.60;;;13.23;;
19794;SDS011;10057;59.402;17.866;2022-08-19T00:53:53;25.47;;;12.90;;
19794;SDS011;10057;59.402;17.866;2022-08-19T00:56:22;27.47;;;13.27;;
19794;SDS011;10057;59.402;17.866;2022-08-19T00:58:50;25.40;;;12.67;;
19794;SDS011;10057;59.402;17.866;2022-08-19T01:01:16;28.00;;;12.90;;
19794;SDS011;10057;59.402;17.866;2022-08-19T01:03:43;32.47;;;13.73;;
19794;SDS011;10057;59.402;17.866;2022-08-19T01:06:23;24.47;;;12.60;;
19794;SDS011;10057;59.402;17.866;2022-08-19T01:08:51;24.87;;;12.80;;
19794;SDS011;10057;59.402;17.866;2022-08-19T01:11:21;28.37;;;13.77;;
19794;SDS011;10057;59.402;17.866;2022-08-19T01:13:47;29.97;;;14.50;;
19794;SDS011;10057;59.402;17.866;2022-08-19T01:16:16;28.70;;;13.60;;
19794;SDS011;10057;59.402;17.866;2022-08-19T01:18:45;29.43;;;13.03;;
19794;SDS011;10057;59.402;17.866;2022-08-19T01:21:22;28.27;;;13.23;;
19794;SDS011;10057;59.402;17.866;2022-08-19T01:24:03;28.30;;;14.27;;
19794;SDS011;10057;59.402;17.866;2022-08-19T01:26:30;29.00;;;14.60;;
19794;SDS011;10057;59.402;17.866;2022-08-19T01:28:58;31.93;;;15.53;;
19794;SDS011;10057;59.402;17.866;2022-08-19T01:31:29;29.10;;;15.20;;
19794;SDS011;10057;59.402;17.866;2022-08-19T01:33:58;31.03;;;14.70;;
19794;SDS011;10057;59.402;17.866;2022-08-19T01:36:30;28.90;;;14.07;;
19794;SDS011;10057;59.402;17.866;2022-08-19T01:38:59;27.30;;;14.47;;
19794;SDS011;10057;59.402;17.866;2022-08-19T01:41:27;26.60;;;14.10;;
19794;SDS011;10057;59.402;17.866;2022-08-19T01:43:54;29.47;;;15.03;;
19794;SDS011;10057;59.402;17.866;2022-08-19T01:46:42;26.63;;;14.37;;
19794;SDS011;10057;59.402;17.866;2022-08-19T01:49:09;28.20;;;14.67;;
19794;SDS011;10057;59.402;17.866;2022-08-19T01:51:36;30.47;;;15.07;;
19794;SDS011;10057;59.402;17.866;2022-08-19T01:54:06;27.50;;;13.80;;
19794;SDS011;10057;59.402;17.866;2022-08-19T01:56:34;29.30;;;14.70;;
19794;SDS011;10057;59.402;17.866;2022-08-19T01:59:02;25.10;;;14.10;;
19794;SDS011;10057;59.402;17.866;2022-08-19T02:01:36;29.30;;;14.13;;
19794;SDS011;10057;59.402;17.866;2022-08-19T02:04:03;26.63;;;13.57;;
19794;SDS011;10057;59.402;17.866;2022-08-19T02:06:31;27.03;;;14.00;;
19794;SDS011;10057;59.402;17.866;2022-08-19T02:08:58;26.17;;;15.13;;
19794;SDS011;10057;59.402;17.866;2022-08-19T02:11:26;31.63;;;15.80;;
19794;SDS011;10057;59.402;17.866;2022-08-19T02:13:54;32.00;;;15.80;;
19794;SDS011;10057;59.402;17.866;2022-08-19T02:16:21;24.87;;;14.27;;
19794;SDS011;10057;59.402;17.866;2022-08-19T02:18:48;25.40;;;14.93;;
19794;SDS011;10057;59.402;17.866;2022-08-19T02:21:16;30.57;;;15.17;;
19794;SDS011;10057;59.402;17.866;2022-08-19T02:23:44;25.43;;;14.17;;
19794;SDS011;10057;59.402;17.866;2022-08-19T02:26:11;34.10;;;14.93;;
19794;SDS011;10057;59.402;17.866;2022-08-19T02:28:39;29.93;;;16.70;;
19794;SDS011;10057;59.402;17.866;2022-08-19T02:31:13;28.20;;;15.27;;
19794;SDS011;10057;59.402;17.866;2022-08-19T02:33:42;33.90;;;15.67;;
19794;SDS011;10057;59.402;17.866;2022-08-19T02:36:09;29.30;;;15.47;;
19794;SDS011;10057;59.402;17.866;2022-08-19T02:38:40;30.70;;;15.40;;
19794;SDS011;10057;59.402;17.866;2022-08-19T02:41:19;31.53;;;15.83;;
19794;SDS011;10057;59.402;17.866;2022-08-19T02:43:51;27.63;;;15.33;;
19794;SDS011;10057;59.402;17.866;2022-08-19T02:46:38;29.10;;;15.57;;
19794;SDS011;10057;59.402;17.866;2022-08-19T02:49:06;30.77;;;16.77;;
19794;SDS011;10057;59.402;17.866;2022-08-19T02:51:35;33.70;;;16.93;;
19794;SDS011;10057;59.402;17.866;2022-08-19T02:54:04;31.53;;;16.17;;
19794;SDS011;10057;59.402;17.866;2022-08-19T02:56:37;36.00;;;16.83;;
19794;SDS011;10057;59.402;17.866;2022-08-19T02:59:05;28.97;;;16.13;;
19794;SDS011;10057;59.402;17.866;2022-08-19T03:01:37;32.60;;;15.60;;
19794;SDS011;10057;59.402;17.866;2022-08-19T03:04:06;27.40;;;16.03;;
19794;SDS011;10057;59.402;17.866;2022-08-19T03:06:35;28.73;;;16.30;;
19794;SDS011;10057;59.402;17.866;2022-08-19T03:09:03;34.83;;;16.53;;
19794;SDS011;10057;59.402;17.866;2022-08-19T03:11:31;28.70;;;16.33;;
19794;SDS011;10057;59.402;17.866;2022-08-19T03:13:58;29.37;;;15.93;;
19794;SDS011;10057;59.402;17.866;2022-08-19T03:16:26;31.90;;;16.60;;
19794;SDS011;10057;59.402;17.866;2022-08-19T03:18:58;30.10;;;16.17;;
19794;SDS011;10057;59.402;17.866;2022-08-19T03:21:30;29.77;;;14.87;;
19794;SDS011;10057;59.402;17.866;2022-08-19T03:23:59;32.40;;;16.50;;
19794;SDS011;10057;59.402;17.866;2022-08-19T03:26:27;31.90;;;16.47;;
19794;SDS011;10057;59.402;17.866;2022-08-19T03:28:54;30.77;;;15.80;;
19794;SDS011;10057;59.402;17.866;2022-08-19T03:31:24;30.07;;;15.90;;
19794;SDS011;10057;59.402;17.866;2022-08-19T03:34:14;30.03;;;16.37;;
19794;SDS011;10057;59.402;17.866;2022-08-19T03:36:44;31.57;;;15.67;;
19794;SDS011;10057;59.402;17.866;2022-08-19T03:39:12;29.20;;;15.27;;
19794;SDS011;10057;59.402;17.866;2022-08-19T03:41:40;30.60;;;15.90;;
19794;SDS011;10057;59.402;17.866;2022-08-19T03:44:11;27.60;;;15.23;;
19794;SDS011;10057;59.402;17.866;2022-08-19T03:46:43;30.23;;;16.63;;
19794;SDS011;10057;59.402;17.866;2022-08-19T03:49:12;32.87;;;16.33;;
19794;SDS011;10057;59.402;17.866;2022-08-19T03:51:40;24.77;;;15.27;;
19794;SDS011;10057;59.402;17.866;2022-08-19T03:54:10;27.70;;;15.30;;
19794;SDS011;10057;59.402;17.866;2022-08-19T03:56:39;29.10;;;15.87;;
19794;SDS011;10057;59.402;17.866;2022-08-19T03:59:08;23.73;;;14.80;;
19794;SDS011;10057;59.402;17.866;2022-08-19T04:01:36;26.53;;;15.37;;
19794;SDS011;10057;59.402;17.866;2022-08-19T04:04:03;30.70;;;16.60;;
19794;SDS011;10057;59.402;17.866;2022-08-19T04:06:34;31.27;;;16.33;;
19794;SDS011;10057;59.402;17.866;2022-08-19T04:09:05;31.13;;;17.03;;
19794;SDS011;10057;59.402;17.866;2022-08-19T04:11:36;29.27;;;14.97;;
19794;SDS011;10057;59.402;17.866;2022-08-19T04:14:13;29.73;;;16.33;;
19794;SDS011;10057;59.402;17.866;2022-08-19T04:16:42;30.53;;;15.33;;
19794;SDS011;10057;59.402;17.866;2022-08-19T04:19:10;32.87;;;15.73;;
19794;SDS011;10057;59.402;17.866;2022-08-19T04:21:38;30.00;;;16.13;;
19794;SDS011;10057;59.402;17.866;2022-08-19T04:24:05;30.23;;;15.63;;
19794;SDS011;10057;59.402;17.866;2022-08-19T04:26:34;30.77;;;15.63;;
19794;SDS011;10057;59.402;17.866;2022-08-19T04:29:05;31.90;;;17.20;;
19794;SDS011;10057;59.402;17.866;2022-08-19T04:31:38;31.63;;;16.60;;
19794;SDS011;10057;59.402;17.866;2022-08-19T04:34:07;32.80;;;16.60;;
19794;SDS011;10057;59.402;17.866;2022-08-19T04:36:38;25.93;;;15.63;;
19794;SDS011;10057;59.402;17.866;2022-08-19T04:39:10;31.10;;;16.27;;
19794;SDS011;10057;59.402;17.866;2022-08-19T04:41:39;32.37;;;16.87;;
19794;SDS011;10057;59.402;17.866;2022-08-19T04:44:25;29.00;;;16.07;;
19794;SDS011;10057;59.402;17.866;2022-08-19T04:46:51;29.37;;;16.27;;
19794;SDS011;10057;59.402;17.866;2022-08-19T04:49:20;30.30;;;16.17;;
19794;SDS011;10057;59.402;17.866;2022-08-19T04:51:49;33.37;;;16.40;;
19794;SDS011;10057;59.402;17.866;2022-08-19T04:54:18;32.87;;;16.00;;
19794;SDS011;10057;59.402;17.866;2022-08-19T04:57:04;31.90;;;17.37;;
19794;SDS011;10057;59.402;17.866;2022-08-19T04:59:33;29.67;;;16.40;;
19794;SDS011;10057;59.402;17.866;2022-08-19T05:02:00;28.83;;;15.00;;
19794;SDS011;10057;59.402;17.866;2022-08-19T05:04:26;30.47;;;16.97;;
19794;SDS011;10057;59.402;17.866;2022-08-19T05:06:58;31.03;;;17.40;;
19794;SDS011;10057;59.402;17.866;2022-08-19T05:09:28;33.97;;;16.30;;
19794;SDS011;10057;59.402;17.866;2022-08-19T05:12:16;28.40;;;16.00;;
19794;SDS011;10057;59.402;17.866;2022-08-19T05:14:44;38.77;;;16.67;;
19794;SDS011;10057;59.402;17.866;2022-08-19T05:17:13;31.23;;;16.77;;
19794;SDS011;10057;59.402;17.866;2022-08-19T05:20:00;36.03;;;16.23;;
19794;SDS011;10057;59.402;17.866;2022-08-19T05:22:46;27.63;;;15.90;;
19794;SDS011;10057;59.402;17.866;2022-08-19T05:25:18;34.73;;;16.43;;
19794;SDS011;10057;59.402;17.866;2022-08-19T05:27:46;30.57;;;15.70;;
19794;SDS011;10057;59.402;17.866;2022-08-19T05:30:13;27.07;;;16.07;;
19794;SDS011;10057;59.402;17.866;2022-08-19T05:32:40;37.03;;;16.27;;
19794;SDS011;10057;59.402;17.866;2022-08-19T05:35:07;34.50;;;15.37;;
19794;SDS011;10057;59.402;17.866;2022-08-19T05:37:35;31.10;;;16.63;;
19794;SDS011;10057;59.402;17.866;2022-08-19T05:40:02;30.10;;;15.07;;
19794;SDS011;10057;59.402;17.866;2022-08-19T05:42:30;28.40;;;15.07;;
19794;SDS011;10057;59.402;17.866;2022-08-19T05:44:57;29.30;;;15.83;;
19794;SDS011;10057;59.402;17.866;2022-08-19T05:47:24;29.37;;;16.37;;
19794;SDS011;10057;59.402;17.866;2022-08-19T05:49:50;29.87;;;16.17;;
19794;SDS011;10057;59.402;17.866;2022-08-19T05:52:17;30.07;;;16.30;;
19794;SDS011;10057;59.402;17.866;2022-08-19T05:54:51;28.33;;;15.40;;
19794;SDS011;10057;59.402;17.866;2022-08-19T05:57:18;35.07;;;17.03;;
19794;SDS011;10057;59.402;17.866;2022-08-19T05:59:45;32.63;;;16.00;;
19794;SDS011;10057;59.402;17.866;2022-08-19T06:02:18;28.20;;;15.43;;
19794;SDS011;10057;59.402;17.866;2022-08-19T06:04:45;32.43;;;16.97;;
19794;SDS011;10057;59.402;17.866;2022-08-19T06:07:12;32.50;;;16.83;;
19794;SDS011;10057;59.402;17.866;2022-08-19T06:09:39;30.50;;;16.93;;
19794;SDS011;10057;59.402;17.866;2022-08-19T06:12:08;29.27;;;15.87;;
19794;SDS011;10057;59.402;17.866;2022-08-19T06:14:35;27.67;;;15.60;;
19794;SDS011;10057;59.402;17.866;2022-08-19T06:17:07;32.40;;;15.93;;
19794;SDS011;10057;59.402;17.866;2022-08-19T06:19:34;27.92;;;15.57;;
19794;SDS011;10057;59.402;17.866;2022-08-19T06:22:06;35.57;;;16.03;;
19794;SDS011;10057;59.402;17.866;2022-08-19T06:24:34;31.37;;;14.73;;
19794;SDS011;10057;59.402;17.866;2022-08-19T06:27:02;24.10;;;14.40;;
19794;SDS011;10057;59.402;17.866;2022-08-19T06:29:32;26.90;;;15.07;;
19794;SDS011;10057;59.402;17.866;2022-08-19T06:31:59;27.63;;;15.65;;
19794;SDS011;10057;59.402;17.866;2022-08-19T06:34:27;26.90;;;15.02;;
19794;SDS011;10057;59.402;17.866;2022-08-19T06:36:56;25.40;;;14.67;;
19794;SDS011;10057;59.402;17.866;2022-08-19T06:39:28;25.80;;;15.32;;
19794;SDS011;10057;59.402;17.866;2022-08-19T06:41:58;28.10;;;14.68;;
19794;SDS011;10057;59.402;17.866;2022-08-19T06:44:27;29.85;;;14.88;;
19794;SDS011;10057;59.402;17.866;2022-08-19T06:46:57;26.58;;;14.18;;
19794;SDS011;10057;59.402;17.866;2022-08-19T06:49:24;30.00;;;14.70;;
19794;SDS011;10057;59.402;17.866;2022-08-19T06:51:53;28.23;;;14.13;;
19794;SDS011;10057;59.402;17.866;2022-08-19T06:54:22;23.50;;;13.75;;
19794;SDS011;10057;59.402;17.866;2022-08-19T06:56:59;27.27;;;14.32;;
19794;SDS011;10057;59.402;17.866;2022-08-19T06:59:30;26.08;;;13.27;;
19794;SDS011;10057;59.402;17.866;2022-08-19T07:02:00;27.20;;;13.32;;
19794;SDS011;10057;59.402;17.866;2022-08-19T07:04:32;22.65;;;13.65;;
19794;SDS011;10057;59.402;17.866;2022-08-19T07:07:07;24.15;;;12.65;;
19794;SDS011;10057;59.402;17.866;2022-08-19T07:09:45;25.80;;;12.80;;
19794;SDS011;10057;59.402;17.866;2022-08-19T07:12:25;21.27;;;11.95;;
19794;SDS011;10057;59.402;17.866;2022-08-19T07:14:55;19.05;;;10.43;;
19794;SDS011;10057;59.402;17.866;2022-08-19T07:17:23;27.38;;;12.38;;
19794;SDS011;10057;59.402;17.866;2022-08-19T07:19:50;23.35;;;11.32;;
19794;SDS011;10057;59.402;17.866;2022-08-19T07:22:20;21.27;;;10.75;;
19794;SDS011;10057;59.402;17.866;2022-08-19T07:24:49;18.90;;;10.65;;
19794;SDS011;10057;59.402;17.866;2022-08-19T07:27:17;16.42;;;9.23;;
19794;SDS011;10057;59.402;17.866;2022-08-19T07:29:51;14.70;;;8.80;;
19794;SDS011;10057;59.402;17.866;2022-08-19T07:32:22;16.23;;;9.32;;
19794;SDS011;10057;59.402;17.866;2022-08-19T07:34:49;15.85;;;8.80;;
19794;SDS011;10057;59.402;17.866;2022-08-19T07:37:15;22.98;;;8.75;;
19794;SDS011;10057;59.402;17.866;2022-08-19T07:39:42;17.02;;;8.70;;
19794;SDS011;10057;59.402;17.866;2022-08-19T07:42:09;15.20;;;8.18;;
19794;SDS011;10057;59.402;17.866;2022-08-19T07:44:38;21.40;;;8.65;;
19794;SDS011;10057;59.402;17.866;2022-08-19T07:47:11;22.77;;;8.95;;
19794;SDS011;10057;59.402;17.866;2022-08-19T07:49:59;17.08;;;8.27;;
19794;SDS011;10057;59.402;17.866;2022-08-19T07:52:25;13.60;;;7.95;;
19794;SDS011;10057;59.402;17.866;2022-08-19T07:54:55;19.67;;;8.05;;
19794;SDS011;10057;59.402;17.866;2022-08-19T07:57:21;16.58;;;8.30;;
19794;SDS011;10057;59.402;17.866;2022-08-19T07:59:48;15.00;;;8.35;;
19794;SDS011;10057;59.402;17.866;2022-08-19T08:02:14;13.20;;;7.18;;
19794;SDS011;10057;59.402;17.866;2022-08-19T08:04:41;13.82;;;7.53;;
19794;SDS011;10057;59.402;17.866;2022-08-19T08:07:26;11.35;;;6.80;;
19794;SDS011;10057;59.402;17.866;2022-08-19T08:10:12;20.05;;;7.80;;
19794;SDS011;10057;59.402;17.866;2022-08-19T08:12:46;17.63;;;7.20;;
19794;SDS011;10057;59.402;17.866;2022-08-19T08:15:33;16.52;;;7.55;;
19794;SDS011;10057;59.402;17.866;2022-08-19T08:18:06;15.45;;;7.30;;
19794;SDS011;10057;59.402;17.866;2022-08-19T08:20:34;14.75;;;7.60;;
19794;SDS011;10057;59.402;17.866;2022-08-19T08:23:01;10.85;;;6.57;;
19794;SDS011;10057;59.402;17.866;2022-08-19T08:25:46;11.27;;;6.38;;
19794;SDS011;10057;59.402;17.866;2022-08-19T08:28:15;17.58;;;7.00;;
19794;SDS011;10057;59.402;17.866;2022-08-19T08:30:43;12.95;;;7.00;;
19794;SDS011;10057;59.402;17.866;2022-08-19T08:33:12;14.40;;;7.45;;
19794;SDS011;10057;59.402;17.866;2022-08-19T08:35:45;14.13;;;7.15;;
19794;SDS011;10057;59.402;17.866;2022-08-19T08:38:12;14.60;;;7.25;;
19794;SDS011;10057;59.402;17.866;2022-08-19T08:51:58;15.13;;;6.78;;
19794;SDS011;10057;59.402;17.866;2022-08-19T08:54:43;14.77;;;6.18;;
19794;SDS011;10057;59.402;17.866;2022-08-19T08:57:27;14.05;;;6.35;;
19794;SDS011;10057;59.402;17.866;2022-08-19T09:00:07;17.42;;;6.68;;
19794;SDS011;10057;59.402;17.866;2022-08-19T09:02:41;11.82;;;6.38;;
19794;SDS011;10057;59.402;17.866;2022-08-19T09:05:09;14.02;;;6.72;;
19794;SDS011;10057;59.402;17.866;2022-08-19T09:13:44;17.83;;;6.93;;
19794;SDS011;10057;59.402;17.866;2022-08-19T09:15:52;13.93;;;6.22;;
19794;SDS011;10057;59.402;17.866;2022-08-19T09:18:23;14.27;;;6.03;;
19794;SDS011;10057;59.402;17.866;2022-08-19T09:20:54;16.35;;;6.22;;
19794;SDS011;10057;59.402;17.866;2022-08-19T09:23:22;13.18;;;5.55;;
19794;SDS011;10057;59.402;17.866;2022-08-19T09:25:52;12.50;;;6.07;;
19794;SDS011;10057;59.402;17.866;2022-08-19T09:28:19;16.88;;;5.55;;
19794;SDS011;10057;59.402;17.866;2022-08-19T09:30:52;11.77;;;5.38;;
19794;SDS011;10057;59.402;17.866;2022-08-19T09:33:19;12.25;;;5.50;;
19794;SDS011;10057;59.402;17.866;2022-08-19T09:35:46;15.05;;;5.90;;
19794;SDS011;10057;59.402;17.866;2022-08-19T09:38:19;10.65;;;5.40;;
19794;SDS011;10057;59.402;17.866;2022-08-19T09:40:46;10.88;;;5.40;;
19794;SDS011;10057;59.402;17.866;2022-08-19T09:43:13;10.98;;;5.20;;
19794;SDS011;10057;59.402;17.866;2022-08-19T09:45:59;18.10;;;5.97;;
19794;SDS011;10057;59.402;17.866;2022-08-19T09:48:27;13.13;;;5.13;;
19794;SDS011;10057;59.402;17.866;2022-08-19T09:50:53;12.63;;;5.13;;
19794;SDS011;10057;59.402;17.866;2022-08-19T09:53:20;13.52;;;5.68;;
19794;SDS011;10057;59.402;17.866;2022-08-19T09:55:51;9.52;;;5.47;;
19794;SDS011;10057;59.402;17.866;2022-08-19T09:58:17;14.85;;;5.30;;
19794;SDS011;10057;59.402;17.866;2022-08-19T10:00:49;12.15;;;4.95;;
19794;SDS011;10057;59.402;17.866;2022-08-19T10:03:16;11.85;;;5.43;;
19794;SDS011;10057;59.402;17.866;2022-08-19T10:05:43;11.18;;;5.63;;
19794;SDS011;10057;59.402;17.866;2022-08-19T10:08:28;12.07;;;5.47;;
19794;SDS011;10057;59.402;17.866;2022-08-19T10:10:56;12.65;;;5.85;;
19794;SDS011;10057;59.402;17.866;2022-08-19T10:13:25;15.55;;;5.60;;
19794;SDS011;10057;59.402;17.866;2022-08-19T10:15:54;10.13;;;5.50;;
19794;SDS011;10057;59.402;17.866;2022-08-19T10:18:23;10.77;;;5.28;;
19794;SDS011;10057;59.402;17.866;2022-08-19T10:20:51;12.02;;;5.53;;
19794;SDS011;10057;59.402;17.866;2022-08-19T10:23:27;12.65;;;4.72;;
19794;SDS011;10057;59.402;17.866;2022-08-19T10:25:59;13.32;;;5.35;;
19794;SDS011;10057;59.402;17.866;2022-08-19T10:28:26;12.90;;;5.25;;
19794;SDS011;10057;59.402;17.866;2022-08-19T10:30:55;8.10;;;4.68;;
19794;SDS011;10057;59.402;17.866;2022-08-19T10:33:22;9.38;;;4.80;;
19794;SDS011;10057;59.402;17.866;2022-08-19T10:36:12;11.10;;;4.68;;
19794;SDS011;10057;59.402;17.866;2022-08-19T10:38:46;10.70;;;4.82;;
19794;SDS011;10057;59.402;17.866;2022-08-19T10:41:22;10.35;;;5.43;;
19794;SDS011;10057;59.402;17.866;2022-08-19T10:43:51;11.70;;;5.30;;
19794;SDS011;10057;59.402;17.866;2022-08-19T10:46:29;9.95;;;4.68;;
19794;SDS011;10057;59.402;17.866;2022-08-19T10:49:00;11.18;;;4.72;;
19794;SDS011;10057;59.402;17.866;2022-08-19T10:51:27;13.70;;;4.70;;
19794;SDS011;10057;59.402;17.866;2022-08-19T10:54:14;9.27;;;4.82;;
19794;SDS011;10057;59.402;17.866;2022-08-19T10:56:44;8.55;;;4.65;;
19794;SDS011;10057;59.402;17.866;2022-08-19T10:59:23;9.25;;;5.07;;
19794;SDS011;10057;59.402;17.866;2022-08-19T11:02:02;10.10;;;4.43;;
19794;SDS011;10057;59.402;17.866;2022-08-19T11:04:30;11.15;;;4.65;;
19794;SDS011;10057;59.402;17.866;2022-08-19T11:06:58;8.70;;;5.05;;
19794;SDS011;10057;59.402;17.866;2022-08-19T11:09:25;7.53;;;4.53;;
19794;SDS011;10057;59.402;17.866;2022-08-19T11:11:59;6.63;;;4.68;;
19794;SDS011;10057;59.402;17.866;2022-08-19T11:14:27;7.07;;;4.80;;
19794;SDS011;10057;59.402;17.866;2022-08-19T11:16:59;10.20;;;4.47;;
19794;SDS011;10057;59.402;17.866;2022-08-19T11:19:26;5.53;;;4.43;;
19794;SDS011;10057;59.402;17.866;2022-08-19T11:21:53;10.10;;;4.90;;
19794;SDS011;10057;59.402;17.866;2022-08-19T11:24:25;10.13;;;4.72;;
19794;SDS011;10057;59.402;17.866;2022-08-19T11:26:54;9.07;;;4.57;;
19794;SDS011;10057;59.402;17.866;2022-08-19T11:29:27;9.38;;;4.55;;
19794;SDS011;10057;59.402;17.866;2022-08-19T11:31:54;8.68;;;4.80;;
19794;SDS011;10057;59.402;17.866;2022-08-19T11:34:22;7.55;;;4.70;;
19794;SDS011;10057;59.402;17.866;2022-08-19T11:36:52;9.43;;;4.72;;
19794;SDS011;10057;59.402;17.866;2022-08-19T11:39:24;9.38;;;4.47;;
19794;SDS011;10057;59.402;17.866;2022-08-19T11:41:52;9.63;;;4.72;;
19794;SDS011;10057;59.402;17.866;2022-08-19T11:44:19;9.73;;;4.82;;
19794;SDS011;10057;59.402;17.866;2022-08-19T11:46:45;11.77;;;4.68;;
19794;SDS011;10057;59.402;17.866;2022-08-19T11:49:13;8.18;;;4.93;;
19794;SDS011;10057;59.402;17.866;2022-08-19T11:51:42;9.80;;;4.70;;
19794;SDS011;10057;59.402;17.866;2022-08-19T11:54:10;13.57;;;5.07;;
19794;SDS011;10057;59.402;17.866;2022-08-19T11:56:39;9.63;;;4.72;;
19794;SDS011;10057;59.402;17.866;2022-08-19T11:59:06;10.20;;;4.28;;
19794;SDS011;10057;59.402;17.866;2022-08-19T12:01:39;7.07;;;4.65;;
19794;SDS011;10057;59.402;17.866;2022-08-19T12:04:09;9.02;;;4.20;;
19794;SDS011;10057;59.402;17.866;2022-08-19T12:06:37;13.30;;;4.55;;
19794;SDS011;10057;59.402;17.866;2022-08-19T12:09:06;6.25;;;4.28;;
19794;SDS011;10057;59.402;17.866;2022-08-19T12:11:35;13.48;;;4.50;;
19794;SDS011;10057;59.402;17.866;2022-08-19T12:14:03;7.32;;;4.35;;
19794;SDS011;10057;59.402;17.866;2022-08-19T12:16:31;6.20;;;4.32;;
19794;SDS011;10057;59.402;17.866;2022-08-19T12:18:59;11.10;;;4.53;;
19794;SDS011;10057;59.402;17.866;2022-08-19T12:21:30;6.65;;;4.10;;
19794;SDS011;10057;59.402;17.866;2022-08-19T12:23:59;9.60;;;4.57;;
19794;SDS011;10057;59.402;17.866;2022-08-19T12:26:27;11.98;;;4.72;;
19794;SDS011;10057;59.402;17.866;2022-08-19T12:28:55;11.75;;;4.50;;
19794;SDS011;10057;59.402;17.866;2022-08-19T12:31:21;10.13;;;4.18;;
19794;SDS011;10057;59.402;17.866;2022-08-19T12:33:48;6.93;;;4.43;;
19794;SDS011;10057;59.402;17.866;2022-08-19T12:36:15;6.65;;;4.55;;
19794;SDS011;10057;59.402;17.866;2022-08-19T12:38:43;7.90;;;4.40;;
19794;SDS011;10057;59.402;17.866;2022-08-19T12:41:11;11.27;;;4.80;;
19794;SDS011;10057;59.402;17.866;2022-08-19T12:43:40;8.10;;;4.40;;
19794;SDS011;10057;59.402;17.866;2022-08-19T12:46:08;12.18;;;4.75;;
19794;SDS011;10057;59.402;17.866;2022-08-19T12:48:36;8.93;;;4.60;;
19794;SDS011;10057;59.402;17.866;2022-08-19T12:51:15;10.70;;;4.90;;
19794;SDS011;10057;59.402;17.866;2022-08-19T12:53:45;7.53;;;4.50;;
19794;SDS011;10057;59.402;17.866;2022-08-19T12:56:15;11.10;;;4.40;;
19794;SDS011;10057;59.402;17.866;2022-08-19T12:58:48;6.90;;;4.40;;
19794;SDS011;10057;59.402;17.866;2022-08-19T13:01:18;10.05;;;4.30;;
19794;SDS011;10057;59.402;17.866;2022-08-19T13:03:48;11.75;;;4.95;;
19794;SDS011;10057;59.402;17.866;2022-08-19T13:06:16;10.50;;;4.80;;
19794;SDS011;10057;59.402;17.866;2022-08-19T13:08:45;8.77;;;4.55;;
19794;SDS011;10057;59.402;17.866;2022-08-19T13:11:13;10.05;;;4.68;;
19794;SDS011;10057;59.402;17.866;2022-08-19T13:13:41;9.15;;;4.40;;
19794;SDS011;10057;59.402;17.866;2022-08-19T13:16:09;12.95;;;4.97;;
19794;SDS011;10057;59.402;17.866;2022-08-19T13:18:38;11.50;;;4.53;;
19794;SDS011;10057;59.402;17.866;2022-08-19T13:21:06;9.27;;;4.55;;
19794;SDS011;10057;59.402;17.866;2022-08-19T13:23:34;8.55;;;4.72;;
19794;SDS011;10057;59.402;17.866;2022-08-19T13:26:03;10.43;;;4.93;;
19794;SDS011;10057;59.402;17.866;2022-08-19T13:28:31;10.60;;;4.60;;
19794;SDS011;10057;59.402;17.866;2022-08-19T13:31:20;11.30;;;4.57;;
19794;SDS011;10057;59.402;17.866;2022-08-19T13:34:07;8.20;;;4.80;;
19794;SDS011;10057;59.402;17.866;2022-08-19T13:36:35;12.15;;;4.90;;
19794;SDS011;10057;59.402;17.866;2022-08-19T13:39:02;10.23;;;4.63;;
19794;SDS011;10057;59.402;17.866;2022-08-19T13:41:30;10.52;;;4.82;;
19794;SDS011;10057;59.402;17.866;2022-08-19T13:43:57;9.20;;;4.90;;
19794;SDS011;10057;59.402;17.866;2022-08-19T13:46:23;8.80;;;5.10;;
19794;SDS011;10057;59.402;17.866;2022-08-19T13:48:50;8.43;;;5.00;;
19794;SDS011;10057;59.402;17.866;2022-08-19T13:51:17;7.25;;;4.65;;
19794;SDS011;10057;59.402;17.866;2022-08-19T13:53:44;7.65;;;4.78;;
19794;SDS011;10057;59.402;17.866;2022-08-19T13:56:17;10.57;;;4.78;;
19794;SDS011;10057;59.402;17.866;2022-08-19T13:58:51;9.85;;;5.00;;
19794;SDS011;10057;59.402;17.866;2022-08-19T14:01:19;10.07;;;4.60;;
19794;SDS011;10057;59.402;17.866;2022-08-19T14:03:50;14.60;;;4.68;;
19794;SDS011;10057;59.402;17.866;2022-08-19T14:06:16;8.60;;;4.80;;
19794;SDS011;10057;59.402;17.866;2022-08-19T14:08:43;13.05;;;4.72;;
19794;SDS011;10057;59.402;17.866;2022-08-19T14:11:11;10.77;;;5.05;;
19794;SDS011;10057;59.402;17.866;2022-08-19T14:13:38;11.18;;;4.93;;
19794;SDS011;10057;59.402;17.866;2022-08-19T14:16:11;9.10;;;4.90;;
19794;SDS011;10057;59.402;17.866;2022-08-19T14:18:39;17.17;;;5.00;;
19794;SDS011;10057;59.402;17.866;2022-08-19T14:21:06;16.88;;;5.50;;
19794;SDS011;10057;59.402;17.866;2022-08-19T14:23:34;12.85;;;4.68;;
19794;SDS011;10057;59.402;17.866;2022-08-19T14:26:06;8.52;;;5.03;;
19794;SDS011;10057;59.402;17.866;2022-08-19T14:28:38;8.20;;;5.05;;
19794;SDS011;10057;59.402;17.866;2022-08-19T14:31:07;10.60;;;4.97;;
19794;SDS011;10057;59.402;17.866;2022-08-19T14:33:38;11.68;;;5.47;;
19794;SDS011;10057;59.402;17.866;2022-08-19T14:36:06;9.27;;;4.80;;
19794;SDS011;10057;59.402;17.866;2022-08-19T14:38:33;10.45;;;4.82;;
19794;SDS011;10057;59.402;17.866;2022-08-19T14:41:07;10.55;;;4.97;;
19794;SDS011;10057;59.402;17.866;2022-08-19T14:43:34;14.82;;;4.80;;
19794;SDS011;10057;59.402;17.866;2022-08-19T14:46:00;12.18;;;5.10;;
19794;SDS011;10057;59.402;17.866;2022-08-19T14:48:30;9.00;;;4.90;;
19794;SDS011;10057;59.402;17.866;2022-08-19T14:50:58;10.88;;;4.82;;